Time;durP1;ratioP1;P1;durP2;ratioP2;P2;SDS_P1;SDS_P2;PMS_P1;PMS_P2;Temp;Humidity;BMP_temperature;BMP_pressure;BME280_temperature;BME280_humidity;BME280_pressure;Samples;Min_cycle;Max_cycle;Signal;HPM_P1;HPM_P2
2022/03/28 00:00:49;;;;;;;;;8.60;7.80;;;;;12.19;15.88;100587.34;5082685;28;8942;-71
2022/03/28 00:03:18;;;;;;;;;2.00;2.00;;;;;12.19;15.93;100582.13;5094302;28;8868;-73
2022/03/28 00:05:47;;;;;;;;;10.20;7.40;;;;;11.96;16.20;100571.41;5088490;28;8857;-72
2022/03/28 00:08:16;;;;;;;;;8.75;8.25;;;;;12.03;16.85;100577.59;5103453;28;8860;-71
2022/03/28 00:10:44;;;;;;;;;9.75;7.75;;;;;12.00;16.70;100575.84;5088724;28;8825;-71
2022/03/28 00:13:13;;;;;;;;;8.75;8.75;;;;;12.05;16.51;100566.28;5093632;28;8861;-72
2022/03/28 00:15:43;;;;;;;;;13.50;8.00;;;;;12.00;16.22;100575.84;5088446;28;8880;-71
2022/03/28 00:18:12;;;;;;;;;8.00;7.00;;;;;11.83;16.17;100569.50;5088712;28;8869;-72
2022/03/28 00:20:41;;;;;;;;;6.40;4.40;;;;;11.84;15.87;100560.81;5045336;28;8885;-72
2022/03/28 00:23:10;;;;;;;;;6.60;6.60;;;;;11.96;16.77;100558.34;5014802;28;8866;-71
2022/03/28 00:25:40;;;;;;;;;10.00;10.00;;;;;12.00;16.31;100561.88;5045535;28;8862;-72
2022/03/28 00:28:09;;;;;;;;;7.00;6.80;;;;;12.06;17.05;100554.97;5045390;28;9615;-70
2022/03/28 00:30:37;;;;;;;;;8.00;7.00;;;;;12.05;16.66;100558.44;5043449;28;8953;-72
2022/03/28 00:33:07;;;;;;;;;9.25;7.75;;;;;12.13;17.06;100550.66;5048052;28;8854;-72
2022/03/28 00:35:36;;;;;;;;;8.25;8.00;;;;;12.11;17.08;100547.16;5045154;28;8838;-72
2022/03/28 00:38:05;;;;;;;;;9.50;9.00;;;;;11.98;17.37;100547.91;5055231;28;8961;-71
2022/03/28 00:40:34;;;;;;;;;8.00;8.00;;;;;12.02;17.00;100542.75;5031519;28;9002;-71
2022/03/28 00:43:06;;;;;;;;;5.75;5.75;;;;;11.82;16.71;100534.66;5045502;28;8892;-71
2022/03/28 00:45:35;;;;;;;;;26.75;23.50;;;;;11.74;16.48;100536.31;5044662;28;8834;-72
2022/03/28 00:48:07;;;;;;;;;94.50;83.00;;;;;11.70;17.41;100535.41;5034225;28;9028;-71
2022/03/28 00:50:37;;;;;;;;;62.67;50.67;;;;;11.71;17.96;100533.66;5065575;28;11537;-72
2022/03/28 00:53:08;;;;;;;;;21.50;21.50;;;;;11.67;17.66;100526.66;5087983;28;9105;-71
2022/03/28 00:55:37;;;;;;;;;13.00;12.25;;;;;11.44;17.39;100532.50;5087233;28;8975;-72
2022/03/28 00:58:06;;;;;;;;;8.20;7.80;;;;;11.30;17.34;100516.69;5087578;28;8869;-72
2022/03/28 01:00:35;;;;;;;;;12.75;12.75;;;;;11.49;17.66;100516.88;5090071;28;8837;-75
2022/03/28 01:03:03;;;;;;;;;17.75;17.25;;;;;11.61;17.89;100511.81;5091105;28;9675;-71
2022/03/28 01:05:34;;;;;;;;;22.00;21.25;;;;;11.72;18.04;100504.09;5091388;28;8829;-72
2022/03/28 01:08:03;;;;;;;;;16.50;15.00;;;;;11.80;18.40;100502.41;5091366;28;9729;-71
2022/03/28 01:10:32;;;;;;;;;17.50;16.75;;;;;11.87;18.69;100501.63;5038942;28;8864;-71
2022/03/28 01:13:02;;;;;;;;;22.50;17.75;;;;;11.91;18.31;100497.34;5111282;28;8850;-72
2022/03/28 01:15:30;;;;;;;;;16.00;16.00;;;;;11.93;18.09;100495.59;5111357;28;8865;-72
2022/03/28 01:18:09;;;;;;;;;16.25;15.75;;;;;11.96;18.15;100492.13;5111122;28;8834;-71
2022/03/28 01:20:40;;;;;;;;;10.75;6.75;;;;;11.96;18.09;100490.38;5111345;28;8868;-72
2022/03/28 01:23:11;;;;;;;;;16.00;13.00;;;;;11.95;17.71;100493.88;5095970;28;8833;-72
2022/03/28 01:25:40;;;;;;;;;10.75;10.75;;;;;11.96;17.73;100497.34;5090669;28;8948;-71
2022/03/28 01:28:09;;;;;;;;;10.00;8.00;;;;;11.94;17.18;100484.28;5094902;28;8978;-72
2022/03/28 01:30:38;;;;;;;;;15.50;12.75;;;;;11.94;17.33;100486.88;5091813;28;8856;-71
2022/03/28 01:33:07;;;;;;;;;9.50;8.00;;;;;11.95;16.44;100478.19;5072464;28;8951;-73
2022/03/28 01:35:37;;;;;;;;;14.75;11.00;;;;;11.94;17.12;100479.03;5055317;28;8880;-71
2022/03/28 01:38:07;;;;;;;;;7.75;7.25;;;;;11.94;16.69;100480.78;5090488;28;9602;-71
2022/03/28 01:40:39;;;;;;;;;15.00;14.50;;;;;11.94;16.97;100473.81;5090358;28;8837;-71
2022/03/28 01:43:08;;;;;;;;;24.75;19.25;;;;;11.94;17.12;100479.03;5090531;28;8845;-73
2022/03/28 01:45:38;;;;;;;;;8.50;7.25;;;;;11.92;16.68;100474.69;5057824;28;8858;-71
2022/03/28 01:48:07;;;;;;;;;56.00;45.00;;;;;11.93;17.80;100479.03;5110773;28;8973;-72
2022/03/28 01:50:36;;;;;;;;;28.25;25.00;;;;;11.92;18.02;100472.94;5092371;28;8855;-71
2022/03/28 01:53:06;;;;;;;;;29.33;26.00;;;;;11.88;17.56;100471.13;5069248;28;1183353;-72
2022/03/28 01:55:34;;;;;;;;;34.75;33.00;;;;;11.87;17.96;100469.34;5111832;28;9579;-71
2022/03/28 01:58:04;;;;;;;;;19.50;19.25;;;;;11.85;17.85;100471.09;5104502;28;8845;-71
2022/03/28 02:00:33;;;;;;;;;18.00;15.50;;;;;11.83;17.51;100468.47;5091435;28;8871;-71
2022/03/28 02:03:02;;;;;;;;;13.00;9.50;;;;;11.84;17.21;100464.13;5108726;28;9146;-72
2022/03/28 02:05:30;;;;;;;;;7.75;7.75;;;;;11.83;17.19;100462.34;5111663;28;8861;-71
2022/03/28 02:07:59;;;;;;;;;6.60;5.20;;;;;11.82;17.11;100463.22;5075507;28;8941;-71
2022/03/28 02:10:28;;;;;;;;;7.20;6.40;;;;;11.81;16.73;100462.34;5090710;28;8969;-72
2022/03/28 02:12:56;;;;;;;;;8.20;8.20;;;;;11.81;16.66;100467.56;5073179;28;8861;-71
2022/03/28 02:15:27;;;;;;;;;3.80;3.20;;;;;11.79;16.90;100461.44;5091299;28;8853;-72
2022/03/28 02:17:55;;;;;;;;;12.40;12.00;;;;;11.57;17.24;100459.50;5090689;28;9795;-71
2022/03/28 02:20:23;;;;;;;;;13.50;13.50;;;;;11.59;17.91;100457.78;5090912;28;8857;-72
2022/03/28 02:22:52;;;;;;;;;20.00;18.25;;;;;11.60;18.66;100460.41;5090741;28;8845;-71
2022/03/28 02:25:21;;;;;;;;;8.60;7.40;;;;;11.60;17.25;100460.41;5090860;28;8849;-71
2022/03/28 02:27:49;;;;;;;;;11.60;9.00;;;;;11.63;17.52;100451.72;5090938;28;8833;-72
2022/03/28 02:30:18;;;;;;;;;3.20;3.20;;;;;11.62;16.70;100452.59;5090584;28;8960;-71
2022/03/28 02:32:48;;;;;;;;;16.50;14.50;;;;;11.66;18.13;100467.41;5072762;28;8874;-72
2022/03/28 02:35:17;;;;;;;;;28.75;24.75;;;;;11.11;22.08;100476.41;5090778;28;8945;-71
2022/03/28 02:37:47;;;;;;;;;30.00;28.00;;;;;10.91;23.34;100470.94;5090854;28;8896;-72
2022/03/28 02:40:15;;;;;;;;;28.50;20.75;;;;;10.93;22.30;100470.97;5090603;28;8918;-72
2022/03/28 02:42:44;;;;;;;;;19.50;16.50;;;;;10.80;20.53;100471.66;5090634;28;8963;-71
2022/03/28 02:45:13;;;;;;;;;24.00;20.25;;;;;10.45;22.03;100474.63;5090284;28;8942;-71
2022/03/28 02:47:41;;;;;;;;;18.50;17.75;;;;;10.53;22.04;100476.50;5054423;28;8838;-71
2022/03/28 02:50:11;;;;;;;;;17.75;16.75;;;;;10.53;21.98;100476.50;5072382;28;8866;-71
2022/03/28 02:52:40;;;;;;;;;13.50;13.25;;;;;10.14;21.14;100480.19;5090283;28;8905;-71
2022/03/28 02:55:09;;;;;;;;;5.00;4.75;;;;;10.17;18.80;100479.41;5089969;28;8868;-72
2022/03/28 02:57:38;;;;;;;;;5.40;5.40;;;;;10.22;17.41;100475.13;5090156;28;8871;-71
2022/03/28 03:00:10;;;;;;;;;7.20;6.00;;;;;10.30;17.15;100472.63;5090210;28;8857;-71
2022/03/28 03:02:39;;;;;;;;;6.20;6.20;;;;;10.40;16.79;100469.34;5090193;28;8849;-71
2022/03/28 03:05:11;;;;;;;;;7.00;6.40;;;;;10.44;16.67;100475.50;5071064;28;8907;-72
2022/03/28 03:07:40;;;;;;;;;6.00;6.00;;;;;10.57;16.80;100476.53;5089894;28;8990;-71
2022/03/28 03:10:09;;;;;;;;;7.20;6.00;;;;;10.68;17.12;100465.41;5089454;28;8970;-71
2022/03/28 03:12:38;;;;;;;;;3.60;3.60;;;;;10.76;16.64;100468.13;5072114;28;8844;-71
2022/03/28 03:15:07;;;;;;;;;6.00;6.00;;;;;10.84;17.02;100463.88;5037264;28;8873;-71
2022/03/28 03:17:36;;;;;;;;;7.00;6.00;;;;;10.89;17.13;100464.81;5089763;28;8848;-71
2022/03/28 03:20:07;;;;;;;;;6.50;6.50;;;;;10.92;16.48;100458.75;5089748;28;8853;-72
2022/03/28 03:22:37;;;;;;;;;4.80;4.80;;;;;10.90;16.75;100455.25;5088988;28;8849;-71
2022/03/28 03:25:06;;;;;;;;;8.25;8.25;;;;;10.98;16.67;100458.81;5053922;28;8883;-72
2022/03/28 03:27:37;;;;;;;;;11.25;11.25;;;;;11.08;17.12;100465.94;5089848;28;8841;-71
2022/03/28 03:30:09;;;;;;;;;11.50;9.00;;;;;11.14;17.76;100459.91;5054053;28;8884;-72
2022/03/28 03:32:39;;;;;;;;;11.25;9.00;;;;;11.14;17.39;100461.66;5057923;28;8884;-71
2022/03/28 03:35:08;;;;;;;;;7.60;7.60;;;;;11.12;17.56;100454.66;5109808;28;8984;-72
2022/03/28 03:37:38;;;;;;;;;4.00;3.00;;;;;11.15;17.19;100459.03;5040742;28;8988;-72
2022/03/28 03:40:09;;;;;;;;;7.80;4.00;;;;;11.10;16.64;100456.38;5055792;28;9021;-72
2022/03/28 03:42:37;;;;;;;;;7.60;6.60;;;;;11.16;16.96;100459.94;5090559;28;8858;-72
2022/03/28 03:45:07;;;;;;;;;6.60;6.60;;;;;11.15;16.93;100459.03;5109491;28;8885;-71
2022/03/28 03:47:36;;;;;;;;;7.00;6.00;;;;;11.15;16.93;100461.63;5073571;28;8866;-70
2022/03/28 03:50:06;;;;;;;;;8.20;4.80;;;;;11.16;16.89;100459.94;5108965;28;8861;-71
2022/03/28 03:52:35;;;;;;;;;6.60;6.00;;;;;11.16;16.93;100458.19;5089147;28;8849;-72
2022/03/28 03:55:07;;;;;;;;;6.60;6.60;;;;;11.17;17.04;100453.84;5054032;28;8848;-72
2022/03/28 03:57:36;;;;;;;;;8.60;6.20;;;;;11.17;17.01;100451.22;5053997;28;8877;-72
2022/03/28 04:00:06;;;;;;;;;6.00;6.00;;;;;11.15;16.71;100452.94;5088726;28;8833;-72
2022/03/28 04:02:41;;;;;;;;;6.80;5.40;;;;;11.16;16.54;100452.97;5089059;28;8844;-71
2022/03/28 04:05:10;;;;;;;;;7.40;6.60;;;;;11.15;16.38;100450.34;5089003;28;8837;-72
2022/03/28 04:07:39;;;;;;;;;68.25;53.25;;;;;11.13;16.98;100452.91;5089186;28;8895;-72
2022/03/28 04:10:10;;;;;;;;;7.67;7.00;;;;;11.14;16.89;100459.91;5105079;28;8863;-72
2022/03/28 04:12:39;;;;;;;;;8.75;7.00;;;;;11.13;16.80;100463.34;5073193;28;8872;-71
2022/03/28 04:15:10;;;;;;;;;16.75;14.75;;;;;11.15;17.34;100473.81;5108161;28;8969;-72
2022/03/28 04:17:44;;;;;;;;;10.75;8.75;;;;;11.12;17.48;100459.88;5073549;28;8874;-71
2022/03/28 04:20:16;;;;;;;;;10.60;8.00;;;;;11.11;17.52;100467.69;5108872;28;8855;-73
2022/03/28 04:22:45;;;;;;;;;8.00;8.00;;;;;11.05;17.46;100467.63;5103831;28;8844;-71
2022/03/28 04:25:17;;;;;;;;;28.75;28.25;;;;;10.92;17.50;100472.66;5069732;28;8829;-71
2022/03/28 04:27:46;;;;;;;;;17.25;16.00;;;;;10.87;17.74;100469.16;5088570;28;8845;-72
2022/03/28 04:30:15;;;;;;;;;7.00;6.00;;;;;10.80;17.72;100474.25;5096047;28;8850;-72
2022/03/28 04:32:43;;;;;;;;;54.00;43.25;;;;;10.71;17.99;100475.88;5088347;28;8970;-73
2022/03/28 04:35:13;;;;;;;;;13.75;12.00;;;;;10.66;18.15;100477.56;5108955;28;8850;-71
2022/03/28 04:37:43;;;;;;;;;10.00;7.75;;;;;10.63;18.16;100471.44;5089866;28;9685;-72
2022/03/28 04:40:14;;;;;;;;;8.00;7.75;;;;;10.61;17.96;100468.78;5108961;28;8973;-71
2022/03/28 04:42:45;;;;;;;;;8.00;7.00;;;;;10.59;17.68;100461.81;5094844;28;8853;-72
2022/03/28 04:45:14;;;;;;;;;50.25;42.00;;;;;10.51;17.98;100466.91;5088142;28;8949;-72
2022/03/28 04:47:43;;;;;;;;;10.75;10.50;;;;;10.50;17.89;100458.19;5036252;28;8865;-72
2022/03/28 04:50:12;;;;;;;;;8.25;4.25;;;;;10.51;17.88;100459.09;5088032;28;8821;-72
2022/03/28 04:52:40;;;;;;;;;11.25;9.25;;;;;10.53;17.97;100458.25;5065463;28;9620;-72
2022/03/28 04:55:10;;;;;;;;;7.25;6.50;;;;;10.48;18.03;100465.13;5048980;28;8954;-73
2022/03/28 04:57:38;;;;;;;;;7.60;7.00;;;;;10.52;17.66;100463.44;5066025;28;8866;-73
2022/03/28 05:00:10;;;;;;;;;7.00;6.25;;;;;10.55;18.07;100460.88;5067734;28;8858;-71
2022/03/28 05:02:40;;;;;;;;;6.40;6.40;;;;;10.55;18.14;100463.50;5052011;28;8851;-71
2022/03/28 05:05:09;;;;;;;;;9.60;6.40;;;;;10.60;17.81;100460.94;5088358;28;8878;-72
2022/03/28 05:07:38;;;;;;;;;8.00;6.75;;;;;10.69;17.96;100454.09;5073700;28;8862;-72
2022/03/28 05:10:07;;;;;;;;;11.00;6.25;;;;;10.77;17.64;100463.78;5067837;28;8880;-73
2022/03/28 05:12:36;;;;;;;;;6.60;6.00;;;;;10.83;17.87;100469.97;5085654;28;8851;-72
2022/03/28 05:15:06;;;;;;;;;10.60;7.20;;;;;10.88;18.53;100465.66;5077674;28;8861;-72
2022/03/28 05:17:36;;;;;;;;;12.20;8.20;;;;;10.96;18.07;100467.50;5067966;28;8850;-72
2022/03/28 05:20:08;;;;;;;;;9.50;9.00;;;;;11.11;18.21;100465.06;5067281;28;8830;-73
2022/03/28 05:22:37;;;;;;;;;13.25;12.00;;;;;11.25;18.26;100473.09;5065376;28;8847;-73
2022/03/28 05:25:07;;;;;;;;;13.00;9.50;;;;;11.37;18.24;100461.91;5067505;28;8877;-74
2022/03/28 05:27:42;;;;;;;;;11.50;9.25;;;;;11.46;18.26;100470.72;5067219;28;8878;-72
2022/03/28 05:30:12;;;;;;;;;8.00;7.75;;;;;11.55;18.02;100469.03;5069515;28;8836;-71
2022/03/28 05:32:43;;;;;;;;;5.80;5.60;;;;;11.62;18.29;100465.66;5087890;28;8940;-72
2022/03/28 05:35:12;;;;;;;;;9.60;8.00;;;;;11.67;17.89;100464.81;5087260;28;8911;-72
2022/03/28 05:37:41;;;;;;;;;9.40;8.00;;;;;11.76;17.82;100463.16;5087799;28;8850;-72
2022/03/28 05:40:11;;;;;;;;;6.60;6.60;;;;;11.82;17.61;100464.09;5077914;28;8870;-73
2022/03/28 05:42:41;;;;;;;;;7.60;7.60;;;;;11.87;18.07;100458.91;5065462;28;8882;-72
2022/03/28 05:45:11;;;;;;;;;9.40;9.40;;;;;11.88;17.58;100460.66;5068506;28;8862;-74
2022/03/28 05:47:40;;;;;;;;;7.00;7.00;;;;;11.96;17.97;100453.78;5071003;28;9132;-72
2022/03/28 05:50:11;;;;;;;;;10.50;8.25;;;;;11.92;17.14;100446.78;5089759;28;8879;-70
2022/03/28 05:52:39;;;;;;;;;8.20;8.00;;;;;12.00;17.27;100455.59;5098679;28;8854;-72
2022/03/28 05:55:09;;;;;;;;;13.50;12.50;;;;;12.13;17.33;100463.53;5111655;28;8988;-72
2022/03/28 05:57:38;;;;;;;;;13.00;12.80;;;;;12.23;17.53;100455.75;5111775;28;8834;-71
2022/03/28 06:00:09;;;;;;;;;13.25;11.25;;;;;12.28;17.86;100459.28;5108522;28;8878;-72
2022/03/28 06:02:42;;;;;;;;;9.00;9.00;;;;;12.41;17.25;100459.38;5111361;28;8973;-73
2022/03/28 06:05:13;;;;;;;;;14.25;10.00;;;;;12.44;17.21;100456.78;5110459;28;8868;-72
2022/03/28 06:07:42;;;;;;;;;15.25;14.50;;;;;12.58;17.13;100449.00;5104126;28;8948;-72
2022/03/28 06:10:11;;;;;;;;;14.25;11.75;;;;;12.73;17.14;100454.31;5104398;28;8845;-71
2022/03/28 06:12:39;;;;;;;;;3.60;3.40;;;;;12.87;16.79;100447.44;5106647;28;8955;-72
2022/03/28 06:15:09;;;;;;;;;13.25;12.25;;;;;13.03;16.83;100452.72;5110533;28;8994;-72
2022/03/28 06:17:37;;;;;;;;;18.00;14.00;;;;;13.16;17.21;100454.53;5111161;28;8855;-73
2022/03/28 06:20:08;;;;;;;;;23.75;22.25;;;;;13.05;17.50;100457.09;5096632;28;8975;-72
2022/03/28 06:22:38;;;;;;;;;18.25;17.00;;;;;13.13;16.76;100446.63;5055593;28;8944;-71
2022/03/28 06:25:09;;;;;;;;;22.25;20.00;;;;;13.22;17.11;100446.69;5095229;28;8838;-71
2022/03/28 06:27:57;;;;;;;;;19.00;18.50;;;;;13.38;16.60;100446.75;5108061;28;8854;-72
2022/03/28 06:30:27;;;;;;;;;21.50;17.50;;;;;13.49;16.80;100437.16;5074126;28;8834;-72
2022/03/28 06:32:55;;;;;;;;;14.20;11.80;;;;;13.59;16.96;100444.19;5058382;28;8846;-72
2022/03/28 06:35:24;;;;;;;;;18.00;15.75;;;;;13.71;16.72;100448.56;5092339;28;9628;-73
2022/03/28 06:37:54;;;;;;;;;14.50;12.00;;;;;13.76;16.38;100440.69;5110221;28;8823;-73
2022/03/28 06:40:23;;;;;;;;;11.25;11.00;;;;;13.80;15.97;100445.09;5091705;28;8865;-72
2022/03/28 06:42:52;;;;;;;;;11.50;10.50;;;;;13.83;16.17;100445.94;5110363;28;8854;-74
2022/03/28 06:45:21;;;;;;;;;9.75;8.75;;;;;13.88;16.57;100437.22;5090081;28;8975;-74
2022/03/28 06:47:52;;;;;;;;;10.80;10.00;;;;;14.04;16.30;100446.81;5089715;28;8958;-72
2022/03/28 06:50:23;;;;;;;;;10.00;10.00;;;;;14.26;16.73;100426.72;5089997;28;9606;-72
2022/03/28 06:52:55;;;;;;;;;9.00;9.00;;;;;14.51;15.91;100429.28;5090140;28;8837;-73
2022/03/28 06:55:23;;;;;;;;;8.20;8.20;;;;;14.66;15.84;100426.66;5095079;28;8872;-75
2022/03/28 06:57:52;;;;;;;;;8.00;7.50;;;;;14.88;15.44;100423.97;5088003;28;8973;-74
2022/03/28 07:00:21;;;;;;;;;7.20;7.20;;;;;14.90;15.63;100430.94;5103256;28;8858;-74
2022/03/28 07:02:50;;;;;;;;;10.80;9.20;;;;;14.93;15.64;100428.31;5107664;28;8850;-74
2022/03/28 07:05:19;;;;;;;;;9.00;8.60;;;;;15.11;15.37;100427.34;5104350;28;8931;-72
2022/03/28 07:07:49;;;;;;;;;3.00;3.00;;;;;15.23;15.35;100429.03;5109336;28;8854;-72
2022/03/28 07:10:21;;;;;;;;;7.00;7.00;;;;;15.23;15.29;100426.41;5043554;28;8854;-71
2022/03/28 07:12:51;;;;;;;;;7.60;7.00;;;;;15.21;15.17;100422.91;5109426;28;8846;-73
2022/03/28 07:15:21;;;;;;;;;9.80;6.60;;;;;15.18;15.15;100426.44;5108266;28;8846;-72
2022/03/28 07:17:56;;;;;;;;;7.20;6.60;;;;;15.33;15.32;100414.97;5079843;28;8971;-72
2022/03/28 07:20:27;;;;;;;;;7.80;7.80;;;;;15.41;15.68;100412.28;5108989;28;8850;-73
2022/03/28 07:22:56;;;;;;;;;12.40;7.80;;;;;15.44;15.76;100416.66;5109681;28;8854;-75
2022/03/28 07:25:28;;;;;;;;;12.60;12.60;;;;;15.59;15.82;100414.81;5108687;28;8946;-73
2022/03/28 07:27:57;;;;;;;;;12.00;9.80;;;;;15.64;15.90;100413.91;5108753;28;8847;-74
2022/03/28 07:30:27;;;;;;;;;7.20;7.20;;;;;15.64;15.56;100411.25;5109525;28;8897;-74
2022/03/28 07:32:56;;;;;;;;;9.80;7.60;;;;;15.67;15.80;100417.38;5104201;28;8882;-75
2022/03/28 07:35:25;;;;;;;;;9.20;8.60;;;;;15.73;16.03;100421.72;5104935;28;8885;-74
2022/03/28 07:37:54;;;;;;;;;9.40;9.40;;;;;15.79;16.02;100413.81;5108639;28;8950;-74
2022/03/28 07:40:23;;;;;;;;;11.20;9.20;;;;;15.88;16.14;100419.00;5108550;28;8938;-73
2022/03/28 07:42:53;;;;;;;;;8.80;7.60;;;;;15.91;16.43;100418.09;5055794;28;9016;-74
2022/03/28 07:45:23;;;;;;;;;10.00;9.80;;;;;15.92;16.79;100415.44;5108354;28;8849;-76
2022/03/28 07:47:52;;;;;;;;;13.40;10.20;;;;;16.10;16.51;100411.78;5056655;28;8854;-75
2022/03/28 07:50:21;;;;;;;;;17.50;15.00;;;;;16.21;16.81;100411.69;5056747;28;8858;-73
2022/03/28 07:52:50;;;;;;;;;15.75;14.00;;;;;16.33;16.99;100415.94;5107906;28;8874;-74
2022/03/28 07:55:20;;;;;;;;;14.40;13.60;;;;;16.41;16.93;100413.22;5108419;28;8846;-73
2022/03/28 07:57:49;;;;;;;;;14.00;10.20;;;;;16.50;16.71;100415.75;5108305;28;9700;-74
2022/03/28 08:00:20;;;;;;;;;8.00;6.80;;;;;16.56;16.58;100395.53;5071940;28;8896;-75
2022/03/28 08:02:51;;;;;;;;;13.00;11.75;;;;;16.64;16.75;100399.84;5102786;27;8907;-73
2022/03/28 08:05:21;;;;;;;;;15.50;14.50;;;;;16.77;16.72;100402.28;5107134;28;8869;-75
2022/03/28 08:07:50;;;;;;;;;14.00;12.00;;;;;16.77;16.20;100397.03;5107716;28;8878;-73
2022/03/28 08:10:19;;;;;;;;;13.80;12.20;;;;;16.90;16.07;100391.63;5107943;28;8846;-72
2022/03/28 08:12:49;;;;;;;;;10.60;9.60;;;;;17.06;16.33;100389.66;5106984;28;8853;-77
2022/03/28 08:15:21;;;;;;;;;10.00;10.00;;;;;17.21;16.52;100392.09;5108918;28;8850;-74
2022/03/28 08:17:50;;;;;;;;;10.20;8.80;;;;;17.24;16.16;100386.78;5090463;28;9572;-73
2022/03/28 08:20:19;;;;;;;;;10.20;9.40;;;;;17.43;15.73;100382.09;5107643;28;8866;-74
2022/03/28 08:22:51;;;;;;;;;10.20;8.60;;;;;17.49;16.36;100386.41;5089448;28;8992;-73
2022/03/28 08:25:21;;;;;;;;;7.80;7.40;;;;;17.60;16.00;100381.84;5055707;28;8826;-73
2022/03/28 08:27:51;;;;;;;;;8.60;8.20;;;;;17.62;16.29;100380.06;5105252;28;8858;-72
2022/03/28 08:30:21;;;;;;;;;9.60;8.80;;;;;17.73;16.22;100383.38;5107243;28;8842;-72
2022/03/28 08:32:50;;;;;;;;;8.20;8.20;;;;;17.91;16.47;100379.59;5105109;28;8910;-72
2022/03/28 08:35:19;;;;;;;;;10.75;10.25;;;;;17.99;16.54;100378.59;5107328;28;8862;-71
2022/03/28 08:37:47;;;;;;;;;12.80;11.20;;;;;18.01;16.97;100379.44;5070984;28;8891;-73
2022/03/28 08:40:17;;;;;;;;;11.00;9.60;;;;;17.98;16.30;100375.09;5054580;28;8850;-72
2022/03/28 08:42:47;;;;;;;;;9.60;6.40;;;;;18.08;16.27;100379.28;5107656;28;8874;-72
2022/03/28 08:45:17;;;;;;;;;8.40;8.20;;;;;18.11;16.35;100376.59;5107669;28;8858;-71
2022/03/28 08:47:49;;;;;;;;;10.00;9.60;;;;;18.27;16.21;100374.53;5104713;28;8985;-72
2022/03/28 08:50:42;;;;;;;;;11.80;10.00;;;;;18.25;16.55;100367.56;5102315;28;9008;-75
2022/03/28 08:53:11;;;;;;;;;8.60;8.60;;;;;18.25;16.46;100360.50;5107906;28;8889;-72
2022/03/28 08:55:41;;;;;;;;;10.40;10.40;;;;;17.93;16.83;100364.59;5107192;28;8962;-71
2022/03/28 08:58:10;;;;;;;;;7.80;7.80;;;;;18.13;17.29;100360.75;5088651;28;8877;-72
2022/03/28 09:00:39;;;;;;;;;12.00;10.25;;;;;18.19;17.00;100360.63;5107713;28;8850;-71
2022/03/28 09:03:09;;;;;;;;;10.20;10.20;;;;;18.31;17.20;100355.09;5088657;28;8870;-73
2022/03/28 09:05:40;;;;;;;;;14.00;12.25;;;;;18.31;16.94;100348.94;5106834;28;8850;-74
2022/03/28 09:08:10;;;;;;;;;13.50;12.25;;;;;18.49;17.21;100347.72;5107475;28;8870;-73
2022/03/28 09:10:46;;;;;;;;;13.40;11.60;;;;;18.60;16.23;100343.09;5108010;28;8965;-76
2022/03/28 09:13:18;;;;;;;;;9.80;9.80;;;;;18.68;16.08;100342.94;5107803;28;8839;-76
2022/03/28 09:15:50;;;;;;;;;9.60;8.00;;;;;18.85;16.30;100334.69;5089857;28;8850;-74
2022/03/28 09:18:25;;;;;;;;;9.00;8.80;;;;;18.99;16.59;100332.59;5107978;28;8874;-74
2022/03/28 09:20:56;;;;;;;;;8.00;8.00;;;;;19.09;16.16;100336.78;5109673;28;8846;-77
2022/03/28 09:23:42;;;;;;;;;13.25;12.25;;;;;19.13;15.38;100327.00;5112118;28;8858;-75
2022/03/28 09:26:14;;;;;;;;;8.60;8.60;;;;;19.21;16.22;100322.38;5077679;28;9031;-76
2022/03/28 09:28:47;;;;;;;;;10.60;9.00;;;;;19.34;16.01;100324.72;5069102;28;8901;-76
2022/03/28 09:31:27;;;;;;;;;11.60;10.00;;;;;19.43;16.00;100322.75;5111137;28;8873;-77
2022/03/28 09:34:07;;;;;;;;;12.00;9.20;;;;;19.33;15.14;100315.06;5111462;28;8862;-74
2022/03/28 09:36:45;;;;;;;;;8.00;8.00;;;;;19.54;15.45;100314.53;5093065;28;8858;-74
2022/03/28 09:39:17;;;;;;;;;8.60;8.60;;;;;19.64;15.39;100308.13;5087391;28;8858;-75
2022/03/28 09:41:58;;;;;;;;;9.80;7.80;;;;;19.59;14.46;100306.50;5093708;28;9038;-73
2022/03/28 09:44:34;;;;;;;;;3.60;2.60;;;;;18.67;15.10;100301.56;5111953;28;8866;-76
2022/03/28 09:47:09;;;;;;;;;8.40;8.40;;;;;18.88;15.00;100300.25;5090945;28;8898;-76
2022/03/28 09:49:41;;;;;;;;;2.80;2.80;;;;;19.01;14.55;100292.91;5078475;28;8849;-70
2022/03/28 09:52:13;;;;;;;;;9.60;9.60;;;;;19.06;15.06;100294.53;5111106;28;8877;-72
2022/03/28 09:54:49;;;;;;;;;10.60;10.40;;;;;19.02;15.21;100284.09;5092534;28;8972;-71
2022/03/28 09:57:22;;;;;;;;;6.20;6.20;;;;;19.17;15.55;100280.19;5109761;28;9637;-71
2022/03/28 09:59:52;;;;;;;;;6.20;6.00;;;;;19.32;13.41;100285.13;5109683;28;8850;-70
2022/03/28 10:02:23;;;;;;;;;5.20;4.40;;;;;18.96;12.60;100277.16;5089375;28;8869;-76
2022/03/28 10:04:56;;;;;;;;;8.80;7.00;;;;;19.15;13.70;100274.06;5109565;28;8850;-72
2022/03/28 10:07:25;;;;;;;;;3.00;2.80;;;;;18.80;10.43;100273.09;5110824;28;8939;-73
2022/03/28 10:09:54;;;;;;;;;6.00;4.40;;;;;19.01;12.22;100262.03;5111091;28;8968;-72
2022/03/28 10:12:24;;;;;;;;;8.80;8.60;;;;;19.18;13.58;100266.06;5108780;28;8858;-72
2022/03/28 10:14:57;;;;;;;;;11.40;11.40;;;;;19.38;14.72;100253.22;5109376;28;8866;-71
2022/03/28 10:17:28;;;;;;;;;9.60;9.00;;;;;19.51;13.61;100256.44;5110253;28;9045;-73
2022/03/28 10:19:59;;;;;;;;;8.40;8.40;;;;;19.60;14.18;100253.53;5110233;28;8890;-71
2022/03/28 10:22:40;;;;;;;;;6.00;4.00;;;;;19.79;14.35;100235.44;5109927;28;8842;-71
2022/03/28 10:25:16;;;;;;;;;8.00;7.80;;;;;19.61;12.31;100234.09;5109491;28;8862;-71
2022/03/28 10:27:45;;;;;;;;;7.60;6.00;;;;;19.47;13.68;100233.63;5082141;28;8841;-72
2022/03/28 10:30:20;;;;;;;;;6.00;6.00;;;;;19.68;14.32;100232.16;5109548;28;8873;-73
2022/03/28 10:33:08;;;;;;;;;10.00;8.20;;;;;19.82;13.89;100222.09;5110215;28;8880;-72
2022/03/28 10:35:38;;;;;;;;;10.40;8.20;;;;;19.47;14.31;100205.38;5110202;28;8850;-72
2022/03/28 10:38:18;;;;;;;;;8.80;8.00;;;;;19.65;14.62;100211.06;5109947;28;8854;-72
2022/03/28 10:40:55;;;;;;;;;9.80;7.40;;;;;19.66;14.66;100202.25;5108401;28;8900;-71
2022/03/28 10:43:26;;;;;;;;;6.40;6.40;;;;;18.94;14.97;100204.06;5109462;28;8954;-71
2022/03/28 10:45:56;;;;;;;;;7.75;7.75;;;;;19.16;15.76;100205.28;5110031;28;8862;-72
2022/03/28 10:48:36;;;;;;;;;13.25;10.50;;;;;19.16;15.77;100197.34;5109231;28;8826;-72
2022/03/28 10:51:08;;;;;;;;;7.60;7.60;;;;;19.44;15.78;100192.22;5108111;28;8984;-73
2022/03/28 10:53:40;;;;;;;;;7.40;7.40;;;;;18.98;16.83;100189.88;5108600;28;8964;-72
2022/03/28 10:56:15;;;;;;;;;8.40;8.20;;;;;19.19;16.51;100183.22;5108439;28;9028;-76
2022/03/28 10:58:45;;;;;;;;;5.00;5.00;;;;;18.82;16.06;100190.25;5109760;28;8869;-73
2022/03/28 11:01:26;;;;;;;;;6.60;6.60;;;;;18.60;16.90;100181.06;5109066;28;8970;-73
2022/03/28 11:04:11;;;;;;;;;6.20;6.20;;;;;18.64;15.82;100180.97;5109053;28;8870;-72
2022/03/28 11:07:03;;;;;;;;;8.60;8.40;;;;;19.04;16.16;100172.09;5006593;28;8866;-73
2022/03/28 11:09:51;;;;;;;;;7.00;6.40;;;;;19.37;15.76;100158.03;5006389;28;8843;-72
2022/03/28 11:12:28;;;;;;;;;6.80;6.80;;;;;19.75;15.15;100154.34;5005554;28;8867;-73
2022/03/28 11:15:00;;;;;;;;;8.40;6.80;;;;;20.05;15.76;100149.09;5006012;28;8843;-72
2022/03/28 11:17:30;;;;;;;;;6.40;6.00;;;;;20.35;15.50;100147.28;5005978;28;8882;-71
2022/03/28 11:20:03;;;;;;;;;6.40;6.00;;;;;20.64;15.07;100140.22;5006648;28;8856;-72
2022/03/28 11:22:48;;;;;;;;;8.40;8.00;;;;;20.91;15.20;100127.84;4973543;28;8836;-73
2022/03/28 11:25:38;;;;;;;;;5.00;4.75;;;;;21.22;14.72;100121.47;5005581;28;8880;-72
2022/03/28 11:28:10;;;;;;;;;10.20;8.40;;;;;21.52;14.77;100116.03;5006415;28;8856;-72
2022/03/28 11:30:48;;;;;;;;;5.20;5.20;;;;;21.77;14.49;100108.00;4989705;28;8874;-74
2022/03/28 11:33:18;;;;;;;;;7.80;6.40;;;;;21.99;14.74;100095.66;4990069;28;10225;-74
2022/03/28 11:35:55;;;;;;;;;7.00;7.00;;;;;22.21;14.83;100092.13;5006922;28;8949;-72
2022/03/28 11:38:28;;;;;;;;;8.60;8.60;;;;;22.34;14.44;100089.88;5005955;28;8860;-73
2022/03/28 11:40:58;;;;;;;;;8.00;7.20;;;;;22.51;14.34;100081.22;4989915;28;8839;-75
2022/03/28 11:43:35;;;;;;;;;13.00;10.40;;;;;22.80;14.63;100077.38;5029452;28;8965;-73